createdAt,value
2022-09-01T00:00:13.478Z,1.30
2022-09-01T00:02:44.097Z,1.87
2022-09-01T00:05:14.592Z,1.77
2022-09-01T00:07:41.636Z,1.90
2022-09-01T00:10:09.886Z,1.67
2022-09-01T00:12:38.662Z,2.10
2022-09-01T00:15:09.475Z,1.83
2022-09-01T00:17:36.949Z,1.50
2022-09-01T00:20:05.625Z,1.60
2022-09-01T00:22:33.719Z,1.90
2022-09-01T00:25:02.097Z,1.90
2022-09-01T00:27:32.424Z,1.47
2022-09-01T00:30:00.505Z,1.57
2022-09-01T00:32:28.637Z,1.50
2022-09-01T00:34:57.589Z,2.37
2022-09-01T00:37:24.801Z,1.60
2022-09-01T00:39:53.737Z,1.60
2022-09-01T00:42:20.876Z,1.70
2022-09-01T00:44:50.688Z,1.40
2022-09-01T00:47:17.741Z,1.70
2022-09-01T00:49:49.777Z,1.50
2022-09-01T00:52:23.524Z,1.80
2022-09-01T00:54:58.334Z,1.60
2022-09-01T00:57:26.490Z,2.10
2022-09-01T01:00:03.469Z,1.40
2022-09-01T01:02:30.389Z,1.40
2022-09-01T01:05:00.604Z,1.60
2022-09-01T01:07:30.816Z,1.43
2022-09-01T01:10:03.492Z,1.30
2022-09-01T01:12:40.393Z,1.57
2022-09-01T01:15:11.167Z,1.40
2022-09-01T01:17:40.887Z,1.50
2022-09-01T01:20:34.127Z,1.70
2022-09-01T01:23:16.225Z,1.90
2022-09-01T01:25:49.227Z,1.43
2022-09-01T01:28:31.092Z,1.73
2022-09-01T01:31:06.216Z,1.43
2022-09-01T01:33:41.754Z,1.70
2022-09-01T01:36:16.453Z,1.87
2022-09-01T01:38:49.222Z,1.67
2022-09-01T01:41:19.854Z,2.40
2022-09-01T01:43:51.144Z,1.60
2022-09-01T01:46:19.276Z,1.70
2022-09-01T01:48:47.624Z,1.30
2022-09-01T01:51:26.788Z,1.60
2022-09-01T01:53:55.350Z,1.90
2022-09-01T01:56:25.741Z,1.97
2022-09-01T01:58:56.207Z,2.20
2022-09-01T02:01:25.897Z,1.90
2022-09-01T02:03:56.409Z,1.50
2022-09-01T02:06:28.206Z,1.77
2022-09-01T02:08:58.336Z,1.90
2022-09-01T02:11:26.516Z,5.27
2022-09-01T02:13:57.446Z,2.57
2022-09-01T02:16:27.344Z,1.40
2022-09-01T02:18:55.050Z,1.60
2022-09-01T02:21:27.711Z,1.67
2022-09-01T02:24:02.246Z,1.97
2022-09-01T02:26:40.645Z,1.30
2022-09-01T02:29:18.203Z,1.53
2022-09-01T02:31:52.024Z,1.60
2022-09-01T02:34:24.122Z,1.80
2022-09-01T02:36:53.744Z,1.77
2022-09-01T02:39:27.453Z,1.60
2022-09-01T02:41:54.956Z,1.80
2022-09-01T02:44:24.559Z,1.77
2022-09-01T02:46:51.507Z,1.50
2022-09-01T02:49:28.358Z,1.50
2022-09-01T02:52:01.712Z,1.67
2022-09-01T02:54:31.953Z,1.50
2022-09-01T02:57:02.465Z,1.50
2022-09-01T02:59:32.266Z,1.67
2022-09-01T03:02:02.627Z,1.60
2022-09-01T03:04:33.951Z,1.43
2022-09-01T03:07:03.657Z,1.73
2022-09-01T03:09:34.378Z,1.93
2022-09-01T03:12:01.710Z,2.33
2022-09-01T03:14:30.105Z,1.90
2022-09-01T03:17:00.710Z,1.93
2022-09-01T03:19:44.388Z,2.20
2022-09-01T03:22:11.752Z,1.70
2022-09-01T03:24:41.278Z,1.70
2022-09-01T03:27:11.727Z,2.20
2022-09-01T03:29:41.284Z,1.93
2022-09-01T03:32:08.329Z,2.63
2022-09-01T03:34:39.613Z,1.80
2022-09-01T03:37:08.049Z,1.70
2022-09-01T03:39:35.429Z,1.63
2022-09-01T03:42:02.576Z,1.80
2022-09-01T03:44:35.457Z,1.90
2022-09-01T03:47:10.552Z,1.70
2022-09-01T03:49:39.430Z,1.77
2022-09-01T03:52:09.006Z,1.83
2022-09-01T03:54:36.742Z,1.80
2022-09-01T03:57:10.186Z,2.13
2022-09-01T03:59:43.352Z,2.00
2022-09-01T04:02:15.145Z,2.20
2022-09-01T04:04:42.109Z,2.67
2022-09-01T04:07:08.994Z,2.27
2022-09-01T04:09:40.343Z,2.20
2022-09-01T04:12:09.004Z,2.03
2022-09-01T04:14:40.465Z,4.70
2022-09-01T04:17:30.550Z,2.33
2022-09-01T04:19:57.994Z,3.20
2022-09-01T04:22:29.225Z,2.80
2022-09-01T04:24:56.214Z,3.43
2022-09-01T04:27:24.631Z,2.50
2022-09-01T04:29:57.092Z,3.30
2022-09-01T04:32:25.799Z,3.13
2022-09-01T04:34:52.657Z,2.53
2022-09-01T04:37:21.978Z,2.70
2022-09-01T04:39:57.545Z,2.43
2022-09-01T04:42:32.407Z,2.50
2022-09-01T04:45:10.334Z,3.00
2022-09-01T04:47:41.883Z,3.10
2022-09-01T04:50:17.175Z,2.60
2022-09-01T04:52:47.887Z,3.07
2022-09-01T04:55:18.252Z,2.60
2022-09-01T04:57:49.160Z,3.00
2022-09-01T05:00:24.244Z,6.20
2022-09-01T05:03:04.420Z,2.97
2022-09-01T05:05:44.450Z,2.60
2022-09-01T05:08:23.165Z,2.53
2022-09-01T05:10:56.719Z,2.90
2022-09-01T05:13:29.610Z,2.73
2022-09-01T05:16:12.939Z,3.07
2022-09-01T05:18:48.895Z,3.27
2022-09-01T05:21:22.096Z,2.93
2022-09-01T05:23:55.314Z,2.47
2022-09-01T05:26:26.515Z,2.93
2022-09-01T05:28:58.534Z,3.17
2022-09-01T05:31:28.565Z,3.30
2022-09-01T05:33:58.075Z,3.13
2022-09-01T05:36:25.735Z,2.60
2022-09-01T05:38:57.022Z,3.47
2022-09-01T05:41:27.488Z,3.43
2022-09-01T05:44:00.505Z,3.30
2022-09-01T05:46:28.440Z,3.30
2022-09-01T05:48:57.007Z,3.30
2022-09-01T05:51:44.209Z,3.10
2022-09-01T05:54:13.980Z,2.80
2022-09-01T05:56:44.142Z,3.20
2022-09-01T05:59:23.331Z,3.63
2022-09-01T06:01:54.957Z,2.80
2022-09-01T06:04:25.486Z,3.00
2022-09-01T06:07:06.592Z,3.20
2022-09-01T06:09:42.819Z,3.10
2022-09-01T06:12:23.120Z,2.50
2022-09-01T06:14:55.647Z,2.67
2022-09-01T06:17:25.996Z,2.70
2022-09-01T06:19:56.715Z,2.30
2022-09-01T06:22:27.918Z,3.93
2022-09-01T06:25:02.728Z,2.80
2022-09-01T06:27:34.236Z,2.90
2022-09-01T06:30:01.584Z,2.40
2022-09-01T06:32:35.301Z,2.27
2022-09-01T06:35:05.665Z,2.63
2022-09-01T06:37:32.805Z,2.50
2022-09-01T06:40:03.310Z,2.27
2022-09-01T06:42:35.316Z,1.90
2022-09-01T06:45:02.592Z,2.00
2022-09-01T06:47:31.658Z,2.20
2022-09-01T06:49:59.362Z,2.43
2022-09-01T06:52:26.561Z,2.30
2022-09-01T06:54:54.091Z,2.20
2022-09-01T07:00:21.018Z,1.63
2022-09-01T07:02:54.953Z,1.60
2022-09-01T07:08:19.908Z,1.80
2022-09-01T07:14:15.260Z,1.90
2022-09-01T07:16:41.837Z,1.53
2022-09-01T07:19:19.132Z,1.40
2022-09-01T07:24:37.567Z,1.57
2022-09-01T07:27:09.500Z,1.47
2022-09-01T07:29:39.270Z,1.57
2022-09-01T07:34:57.118Z,1.03
2022-09-01T07:43:27.185Z,1.20
2022-09-01T07:45:59.630Z,1.27
2022-09-01T07:49:01.861Z,1.80
2022-09-01T07:51:36.912Z,1.70
2022-09-01T07:54:05.656Z,1.50
2022-09-01T07:56:39.737Z,1.40
2022-09-01T07:59:14.579Z,1.57
2022-09-01T08:01:43.165Z,1.00
2022-09-01T08:04:12.241Z,1.10
2022-09-01T08:06:39.690Z,1.07
2022-09-01T08:09:11.569Z,1.07
2022-09-01T08:14:33.823Z,0.80
2022-09-01T08:19:55.378Z,1.00
2022-09-01T08:22:27.893Z,0.80
2022-09-01T08:24:57.968Z,0.90
2022-09-01T08:27:24.881Z,0.80
2022-09-01T08:29:54.860Z,1.30
2022-09-01T08:32:22.474Z,0.80
2022-09-01T08:34:51.980Z,0.83
2022-09-01T08:37:19.198Z,0.90
2022-09-01T08:39:48.538Z,0.90
2022-09-01T08:42:18.613Z,1.33
2022-09-01T08:45:08.400Z,0.80
2022-09-01T08:47:56.024Z,0.90
2022-09-01T08:50:25.565Z,0.80
2022-09-01T08:53:09.632Z,0.70
2022-09-01T08:55:44.074Z,0.77
2022-09-01T08:58:14.586Z,0.80
2022-09-01T09:00:58.012Z,0.70
2022-09-01T09:04:11.664Z,0.70
2022-09-01T09:07:02.765Z,0.77
2022-09-01T09:09:47.838Z,0.70
2022-09-01T09:13:02.220Z,0.60
2022-09-01T09:15:52.781Z,0.60
2022-09-01T09:18:39.859Z,0.60
2022-09-01T09:21:24.845Z,1.20
2022-09-01T09:24:03.568Z,0.70
2022-09-01T09:26:47.528Z,0.63
2022-09-01T09:29:18.082Z,0.60
2022-09-01T09:31:50.499Z,0.83
2022-09-01T09:34:35.071Z,0.70
2022-09-01T09:37:30.831Z,0.80
2022-09-01T09:40:15.211Z,0.70
2022-09-01T09:43:05.929Z,0.70
2022-09-01T09:45:41.992Z,0.60
2022-09-01T09:48:31.668Z,0.70
2022-09-01T09:51:28.933Z,0.77
2022-09-01T09:54:23.054Z,0.60
2022-09-01T09:57:22.100Z,0.60
2022-09-01T10:00:00.540Z,0.73
2022-09-01T10:02:41.348Z,0.80
2022-09-01T10:05:44.212Z,0.70
2022-09-01T10:08:29.498Z,0.70
2022-09-01T10:11:00.465Z,0.90
2022-09-01T10:13:33.044Z,0.60
2022-09-01T10:16:14.196Z,0.80
2022-09-01T10:18:47.409Z,0.60
2022-09-01T10:21:34.558Z,0.60
2022-09-01T10:24:21.132Z,0.50
2022-09-01T10:26:54.975Z,0.80
2022-09-01T10:29:47.847Z,0.70
2022-09-01T10:32:36.996Z,0.80
2022-09-01T10:35:13.041Z,0.53
2022-09-01T10:37:41.417Z,0.70
2022-09-01T10:40:30.977Z,0.77
2022-09-01T10:43:38.031Z,0.90
2022-09-01T10:46:38.588Z,0.60
2022-09-01T10:49:28.536Z,0.80
2022-09-01T10:52:03.247Z,0.70
2022-09-01T10:54:50.848Z,0.50
2022-09-01T10:57:43.839Z,0.77
2022-09-01T11:00:35.881Z,0.80
2022-09-01T11:03:51.745Z,0.60
2022-09-01T11:07:16.591Z,1.13
2022-09-01T11:10:32.105Z,0.57
2022-09-01T11:13:14.972Z,0.70
2022-09-01T11:15:45.005Z,0.70
2022-09-01T11:18:27.181Z,0.80
2022-09-01T11:21:25.782Z,0.80
2022-09-01T11:25:00.295Z,0.70
2022-09-01T11:27:50.923Z,0.77
2022-09-01T11:30:21.722Z,0.87
2022-09-01T11:32:58.766Z,0.80
2022-09-01T11:35:29.077Z,0.70
2022-09-01T11:38:03.165Z,0.90
2022-09-01T11:40:36.252Z,0.73
2022-09-01T11:43:16.849Z,0.93
2022-09-01T11:46:11.323Z,0.90
2022-09-01T11:48:46.469Z,0.80
2022-09-01T11:51:21.499Z,0.90
2022-09-01T11:53:52.180Z,0.70
2022-09-01T11:56:26.457Z,0.50
2022-09-01T11:58:55.999Z,0.80
2022-09-01T12:01:33.375Z,0.70
2022-09-01T12:04:25.526Z,0.70
2022-09-01T12:07:13.753Z,0.77
2022-09-01T12:09:48.007Z,0.80
2022-09-01T12:12:39.946Z,0.80
2022-09-01T12:15:24.217Z,0.70
2022-09-01T12:17:55.723Z,0.80
2022-09-01T12:20:34.872Z,0.87
2022-09-01T12:23:02.533Z,0.60
2022-09-01T12:25:34.425Z,0.80
2022-09-01T12:28:06.568Z,0.97
2022-09-01T12:30:40.708Z,1.10
2022-09-01T12:33:29.049Z,1.57
2022-09-01T12:36:35.096Z,1.33
2022-09-01T12:39:23.943Z,1.53
2022-09-01T12:42:15.384Z,0.80
2022-09-01T12:44:44.244Z,0.73
2022-09-01T12:47:40.886Z,0.93
2022-09-01T12:50:17.055Z,0.73
2022-09-01T12:52:52.331Z,1.00
2022-09-01T12:55:47.962Z,0.93
2022-09-01T12:58:26.117Z,0.70
2022-09-01T13:01:13.830Z,0.90
2022-09-01T13:04:28.285Z,0.70
2022-09-01T13:07:01.234Z,0.90
2022-09-01T13:09:30.430Z,1.27
2022-09-01T13:12:21.392Z,1.17
2022-09-01T13:14:48.564Z,1.17
2022-09-01T13:17:20.184Z,1.13
2022-09-01T13:19:49.570Z,0.80
2022-09-01T13:22:19.487Z,1.10
2022-09-01T13:24:51.221Z,1.57
2022-09-01T13:27:21.820Z,1.63
2022-09-01T13:29:50.410Z,1.33
2022-09-01T13:32:21.660Z,2.57
2022-09-01T13:34:54.078Z,1.23
2022-09-01T13:37:22.346Z,1.70
2022-09-01T13:39:49.968Z,1.40
2022-09-01T13:42:20.188Z,0.90
2022-09-01T13:44:49.695Z,3.30
2022-09-01T13:47:30.139Z,0.83
2022-09-01T13:50:07.919Z,0.93
2022-09-01T13:52:35.905Z,1.10
2022-09-01T13:55:05.477Z,0.80
2022-09-01T13:57:35.675Z,1.00
2022-09-01T14:00:17.247Z,0.90
2022-09-01T14:02:49.202Z,0.90
2022-09-01T14:05:26.173Z,0.70
2022-09-01T14:07:54.511Z,1.37
2022-09-01T14:10:23.972Z,1.20
2022-09-01T14:12:53.511Z,1.10
2022-09-01T14:15:27.338Z,1.00
2022-09-01T14:17:57.875Z,0.93
2022-09-01T14:20:33.479Z,0.83
2022-09-01T14:23:06.600Z,0.73
2022-09-01T14:25:34.818Z,0.90
2022-09-01T14:28:04.730Z,0.80
2022-09-01T14:30:34.078Z,0.90
2022-09-01T14:33:02.149Z,0.90
2022-09-01T14:35:33.101Z,0.97
2022-09-01T14:38:01.420Z,1.30
2022-09-01T14:40:29.342Z,1.00
2022-09-01T14:42:59.369Z,1.10
2022-09-01T14:45:33.908Z,0.90
2022-09-01T14:48:03.906Z,1.07
2022-09-01T14:50:34.108Z,1.10
2022-09-01T14:53:04.350Z,0.90
2022-09-01T14:55:32.799Z,0.97
2022-09-01T14:58:02.265Z,1.60
2022-09-01T15:00:41.727Z,1.00
2022-09-01T15:03:10.981Z,1.10
2022-09-01T15:05:39.860Z,0.97
2022-09-01T15:08:12.030Z,0.90
2022-09-01T15:10:45.656Z,0.93
2022-09-01T15:13:13.621Z,1.10
2022-09-01T15:15:43.135Z,0.87
2022-09-01T15:18:10.711Z,0.93
2022-09-01T15:20:45.496Z,1.27
2022-09-01T15:23:24.966Z,1.20
2022-09-01T15:25:57.748Z,1.87
2022-09-01T15:28:26.031Z,1.10
2022-09-01T15:31:00.309Z,0.90
2022-09-01T15:33:29.824Z,1.13
2022-09-01T15:35:56.797Z,0.83
2022-09-01T15:38:28.367Z,0.90
2022-09-01T15:41:00.362Z,1.20
2022-09-01T15:43:31.621Z,1.10
2022-09-01T15:46:02.095Z,0.80
2022-09-01T15:48:29.810Z,0.90
2022-09-01T15:51:23.059Z,1.27
2022-09-01T15:53:51.805Z,1.20
2022-09-01T15:56:18.948Z,0.90
2022-09-01T15:59:00.862Z,1.00
2022-09-01T16:01:34.980Z,0.80
2022-09-01T16:04:06.991Z,0.90
2022-09-01T16:06:37.429Z,1.00
2022-09-01T16:09:09.432Z,1.30
2022-09-01T16:11:39.542Z,1.00
2022-09-01T16:14:09.223Z,1.30
2022-09-01T16:17:10.266Z,1.30
2022-09-01T16:19:52.502Z,1.00
2022-09-01T16:22:36.028Z,1.00
2022-09-01T16:25:18.270Z,2.13
2022-09-01T16:27:46.143Z,1.13
2022-09-01T16:30:22.510Z,1.20
2022-09-01T16:32:50.267Z,1.53
2022-09-01T16:35:19.734Z,1.07
2022-09-01T16:38:18.971Z,1.07
2022-09-01T16:41:18.142Z,1.20
2022-09-01T16:44:20.863Z,1.10
2022-09-01T16:47:09.407Z,1.03
2022-09-01T16:49:58.021Z,1.37
2022-09-01T16:52:29.470Z,1.03
2022-09-01T16:55:24.413Z,1.00
2022-09-01T16:58:23.344Z,0.83
2022-09-01T17:01:02.181Z,1.20
2022-09-01T17:04:05.537Z,1.07
2022-09-01T17:06:49.429Z,1.50
2022-09-01T17:09:35.418Z,1.20
2022-09-01T17:12:25.121Z,1.30
2022-09-01T17:15:10.082Z,1.30
2022-09-01T17:17:55.350Z,1.43
2022-09-01T17:20:31.405Z,1.33
2022-09-01T17:23:08.902Z,0.93
2022-09-01T17:26:05.124Z,1.00
2022-09-01T17:28:43.797Z,1.00
2022-09-01T17:31:33.909Z,1.17
2022-09-01T17:34:54.879Z,1.10
2022-09-01T17:37:58.732Z,1.53
2022-09-01T17:40:44.965Z,1.47
2022-09-01T17:43:21.524Z,1.53
2022-09-01T17:46:31.215Z,1.30
2022-09-01T17:49:10.072Z,1.23
2022-09-01T17:51:50.609Z,1.43
2022-09-01T17:54:34.365Z,1.30
2022-09-01T17:57:42.962Z,1.20
2022-09-01T18:00:34.460Z,1.20
2022-09-01T18:03:07.854Z,2.70
2022-09-01T18:05:59.986Z,1.20
2022-09-01T18:08:44.792Z,2.13
2022-09-01T18:11:23.122Z,1.60
2022-09-01T18:14:00.447Z,1.23
2022-09-01T18:16:37.072Z,1.10
2022-09-01T18:19:17.318Z,1.17
2022-09-01T18:21:58.372Z,1.40
2022-09-01T18:24:40.349Z,1.70
2022-09-01T18:27:09.083Z,1.57
2022-09-01T18:29:36.085Z,1.10
2022-09-01T18:32:34.954Z,1.67
2022-09-01T18:35:24.504Z,1.30
2022-09-01T18:38:13.491Z,1.73
2022-09-01T18:41:01.588Z,1.23
2022-09-01T18:43:57.398Z,1.63
2022-09-01T18:46:49.396Z,1.50
2022-09-01T18:49:33.719Z,1.70
2022-09-01T18:52:33.000Z,2.10
2022-09-01T18:55:24.972Z,1.50
2022-09-01T18:58:17.075Z,1.60
2022-09-01T19:01:05.808Z,1.40
2022-09-01T19:04:05.071Z,1.60
2022-09-01T19:07:02.262Z,1.37
2022-09-01T19:09:42.828Z,1.70
2022-09-01T19:12:43.139Z,1.30
2022-09-01T19:15:19.486Z,0.93
2022-09-01T19:18:12.883Z,1.40
2022-09-01T19:21:10.782Z,1.30
2022-09-01T19:23:50.620Z,1.43
2022-09-01T19:26:25.430Z,2.20
2022-09-01T19:29:02.103Z,1.40
2022-09-01T19:32:00.105Z,1.60
2022-09-01T19:34:55.854Z,2.00
2022-09-01T19:37:53.625Z,1.80
2022-09-01T19:40:39.330Z,1.80
2022-09-01T19:43:20.771Z,2.07
2022-09-01T19:46:09.823Z,2.00
2022-09-01T19:48:58.545Z,2.10
2022-09-01T19:51:59.108Z,1.90
2022-09-01T19:55:11.293Z,2.20
2022-09-01T19:57:59.448Z,1.80
2022-09-01T20:00:50.977Z,1.60
2022-09-01T20:03:41.447Z,1.60
2022-09-01T20:06:37.678Z,1.80
2022-09-01T20:09:26.333Z,1.40
2022-09-01T20:12:48.012Z,1.63
2022-09-01T20:15:44.276Z,1.60
2022-09-01T20:18:34.717Z,2.20
2022-09-01T20:21:20.922Z,1.30
2022-09-01T20:24:12.007Z,1.50
2022-09-01T20:26:51.894Z,1.20
2022-09-01T20:29:23.532Z,1.60
2022-09-01T20:31:57.371Z,1.30
2022-09-01T20:34:40.373Z,1.23
2022-09-01T20:37:48.177Z,1.40
2022-09-01T20:40:32.217Z,1.37
2022-09-01T20:43:29.590Z,1.20
2022-09-01T20:45:58.880Z,1.70
2022-09-01T20:48:27.932Z,1.10
2022-09-01T20:51:07.861Z,1.80
2022-09-01T20:53:56.297Z,1.60
2022-09-01T20:56:36.993Z,1.53
2022-09-01T20:59:36.500Z,3.93
2022-09-01T21:02:28.164Z,1.27
2022-09-01T21:05:19.270Z,1.30
2022-09-01T21:07:56.199Z,1.10
2022-09-01T21:10:32.176Z,1.63
2022-09-01T21:13:45.190Z,1.70
2022-09-01T21:16:51.822Z,1.37
2022-09-01T21:19:27.656Z,1.60
2022-09-01T21:22:07.252Z,1.40
2022-09-01T21:24:34.858Z,1.50
2022-09-01T21:27:07.678Z,1.37
2022-09-01T21:30:09.348Z,1.40
2022-09-01T21:32:37.139Z,1.40
2022-09-01T21:35:07.820Z,1.40
2022-09-01T21:37:37.320Z,1.60
2022-09-01T21:40:06.261Z,1.50
2022-09-01T21:42:59.761Z,1.73
2022-09-01T21:45:32.744Z,1.20
2022-09-01T21:48:04.436Z,1.60
2022-09-01T21:50:35.856Z,1.90
2022-09-01T21:53:05.289Z,1.40
2022-09-01T21:55:33.028Z,1.50
2022-09-01T21:57:59.989Z,1.23
2022-09-01T22:00:31.034Z,1.40
2022-09-01T22:02:59.491Z,2.40
2022-09-01T22:05:27.826Z,1.40
2022-09-01T22:07:56.533Z,1.90
2022-09-01T22:10:28.573Z,3.47
2022-09-01T22:12:57.275Z,2.00
2022-09-01T22:15:28.126Z,1.77
2022-09-01T22:17:58.959Z,1.83
2022-09-01T22:20:32.074Z,1.53
2022-09-01T22:23:02.031Z,1.70
2022-09-01T22:25:34.028Z,1.47
2022-09-01T22:28:05.863Z,1.37
2022-09-01T22:30:33.618Z,1.40
2022-09-01T22:33:07.708Z,1.50
2022-09-01T22:35:37.993Z,1.40
2022-09-01T22:38:04.896Z,1.80
2022-09-01T22:40:35.427Z,1.40
2022-09-01T22:43:03.124Z,1.63
2022-09-01T22:45:32.567Z,1.53
2022-09-01T22:47:59.495Z,1.80
2022-09-01T22:50:26.524Z,1.43
2022-09-01T22:52:53.471Z,1.50
2022-09-01T22:55:20.605Z,1.70
2022-09-01T22:57:47.560Z,1.70
2022-09-01T23:00:15.106Z,2.13
2022-09-01T23:02:42.221Z,2.23
2022-09-01T23:05:09.499Z,1.70
2022-09-01T23:07:39.421Z,1.80
2022-09-01T23:10:10.797Z,1.67
2022-09-01T23:12:40.256Z,1.50
2022-09-01T23:15:08.885Z,1.50
2022-09-01T23:17:37.888Z,1.53
2022-09-01T23:20:11.367Z,1.73
2022-09-01T23:22:46.103Z,1.50
2022-09-01T23:25:18.468Z,1.40
2022-09-01T23:27:45.633Z,1.40
2022-09-01T23:30:14.789Z,1.70
2022-09-01T23:32:44.001Z,1.60
2022-09-01T23:35:11.933Z,1.60
2022-09-01T23:37:38.999Z,1.90
2022-09-01T23:40:07.939Z,1.63
2022-09-01T23:42:41.426Z,1.40
2022-09-01T23:45:11.447Z,1.40
2022-09-01T23:47:38.526Z,1.67
2022-09-01T23:50:06.976Z,1.83
2022-09-01T23:52:37.163Z,1.73
2022-09-01T23:55:07.956Z,1.87
2022-09-01T23:57:38.259Z,1.63
